createdAt,value
2019-04-20T00:01:51.353Z,11.50
2019-04-20T00:04:27.207Z,11.50
2019-04-20T00:06:54.725Z,11.40
2019-04-20T00:09:26.605Z,11.40
2019-04-20T00:12:04.081Z,11.30
2019-04-20T00:14:30.963Z,11.30
2019-04-20T00:16:57.246Z,11.30
2019-04-20T00:19:35.495Z,11.20
2019-04-20T00:22:13.936Z,11.20
2019-04-20T00:24:59.356Z,11.10
2019-04-20T00:27:45.791Z,11.10
2019-04-20T00:30:06.731Z,11.00
2019-04-20T00:32:42.365Z,11.00
2019-04-20T00:34:55.867Z,10.90
2019-04-20T00:37:25.435Z,10.80
2019-04-20T00:39:55.973Z,10.80
2019-04-20T00:42:34.080Z,10.80
2019-04-20T00:45:05.642Z,10.70
2019-04-20T00:47:37.283Z,10.60
2019-04-20T00:50:19.554Z,10.60
2019-04-20T00:52:47.183Z,10.50
2019-04-20T00:55:02.424Z,10.40
2019-04-20T00:57:41.843Z,10.40
2019-04-20T01:00:21.539Z,10.30
2019-04-20T01:02:45.549Z,10.30
2019-04-20T01:05:22.891Z,10.20
2019-04-20T01:07:59.897Z,10.10
2019-04-20T01:10:30.287Z,10.10
2019-04-20T01:13:01.882Z,10.10
2019-04-20T01:15:38.684Z,10.00
2019-04-20T01:17:58.991Z,10.00
2019-04-20T01:20:28.347Z,9.90
2019-04-20T01:23:04.855Z,9.90
2019-04-20T01:25:34.966Z,9.90
2019-04-20T01:28:11.938Z,9.80
2019-04-20T01:30:40.609Z,9.80
2019-04-20T01:33:16.327Z,9.80
2019-04-20T01:35:51.869Z,9.70
2019-04-20T01:38:22.368Z,9.70
2019-04-20T01:40:38.069Z,9.60
2019-04-20T01:43:08.003Z,9.60
2019-04-20T01:45:40.459Z,9.60
2019-04-20T01:48:09.888Z,9.50
2019-04-20T01:50:49.861Z,9.50
2019-04-20T01:53:57.083Z,9.40
2019-04-20T01:56:19.029Z,9.30
2019-04-20T01:59:10.560Z,9.30
2019-04-20T02:01:55.677Z,9.20
2019-04-20T02:04:33.915Z,9.20
2019-04-20T02:07:01.353Z,9.20
2019-04-20T02:09:32.458Z,9.10
2019-04-20T02:12:07.647Z,9.00
2019-04-20T02:14:40.504Z,9.00
2019-04-20T02:17:09.550Z,8.90
2019-04-20T02:19:48.857Z,8.90
2019-04-20T02:22:17.914Z,8.90
2019-04-20T02:24:37.016Z,8.80
2019-04-20T02:27:06.632Z,8.80
2019-04-20T02:29:58.268Z,8.70
2019-04-20T02:35:18.309Z,8.70
2019-04-20T02:38:15.167Z,8.60
2019-04-20T02:40:39.746Z,8.60
2019-04-20T02:50:40.076Z,8.40
2019-04-20T02:53:17.012Z,8.40
2019-04-20T02:55:40.315Z,8.30
2019-04-20T02:58:09.344Z,8.30
2019-04-20T03:00:33.620Z,8.30
2019-04-20T03:02:55.892Z,8.20
2019-04-20T03:05:28.239Z,8.20
2019-04-20T03:08:05.680Z,8.10
2019-04-20T03:10:42.971Z,8.10
2019-04-20T03:13:09.870Z,8.00
2019-04-20T03:15:37.894Z,8.00
2019-04-20T03:18:10.210Z,8.00
2019-04-20T03:20:43.514Z,7.90
2019-04-20T03:23:26.132Z,7.90
2019-04-20T03:26:00.699Z,7.80
2019-04-20T03:28:25.883Z,7.80
2019-04-20T03:34:05.781Z,7.60
2019-04-20T03:36:18.298Z,7.60
2019-04-20T03:38:36.315Z,7.60
2019-04-20T03:41:03.971Z,7.60
2019-04-20T03:43:22.273Z,7.50
2019-04-20T03:45:57.992Z,7.50
2019-04-20T03:48:41.525Z,7.40
2019-04-20T03:51:22.128Z,7.40
2019-04-20T03:54:03.417Z,7.40
2019-04-20T03:56:40.575Z,7.40
2019-04-20T03:59:27.947Z,7.30
2019-04-20T04:02:45.644Z,7.30
2019-04-20T04:05:06.231Z,7.30
2019-04-20T04:07:26.526Z,7.30
2019-04-20T04:10:04.682Z,7.20
2019-04-20T04:13:05.231Z,7.20
2019-04-20T04:15:36.156Z,7.20
2019-04-20T04:18:14.574Z,7.20
2019-04-20T04:20:49.247Z,7.20
2019-04-20T04:23:24.633Z,7.20
2019-04-20T04:26:00.712Z,7.20
2019-04-20T04:28:28.498Z,7.20
2019-04-20T04:31:04.169Z,7.20
2019-04-20T04:33:53.269Z,7.20
2019-04-20T04:36:00.538Z,7.20
2019-04-20T04:38:37.340Z,7.20
2019-04-20T04:43:38.880Z,7.20
2019-04-20T04:45:49.302Z,7.30
2019-04-20T04:48:25.194Z,7.30
2019-04-20T04:50:57.368Z,7.30
2019-04-20T04:53:31.269Z,7.30
2019-04-20T04:55:59.463Z,7.30
2019-04-20T04:58:23.668Z,7.40
2019-04-20T05:00:56.962Z,7.40
2019-04-20T05:03:45.189Z,7.50
2019-04-20T05:06:33.117Z,7.60
2019-04-20T05:08:53.319Z,7.70
2019-04-20T05:11:18.011Z,7.80
2019-04-20T05:13:55.699Z,8.00
2019-04-20T05:16:38.520Z,8.10
2019-04-20T05:19:13.457Z,8.30
2019-04-20T05:22:08.141Z,8.40
2019-04-20T05:24:42.700Z,8.60
2019-04-20T05:27:50.895Z,8.90
2019-04-20T05:30:05.672Z,9.20
2019-04-20T05:32:44.616Z,9.40
2019-04-20T05:35:26.956Z,9.70
2019-04-20T05:40:34.770Z,10.30
2019-04-20T05:43:17.711Z,10.60
2019-04-20T05:45:41.414Z,10.90
2019-04-20T05:48:16.400Z,11.20
2019-04-20T05:50:48.235Z,11.50
2019-04-20T05:53:27.642Z,11.80
2019-04-20T05:55:49.316Z,12.10
2019-04-20T05:58:29.447Z,12.40
2019-04-20T06:01:01.140Z,12.70
2019-04-20T06:03:26.102Z,13.00
2019-04-20T06:06:06.392Z,13.30
2019-04-20T06:08:41.671Z,13.60
2019-04-20T06:11:02.007Z,13.80
2019-04-20T06:13:44.328Z,14.10
2019-04-20T06:16:29.887Z,14.40
2019-04-20T06:19:10.268Z,14.70
2019-04-20T06:21:43.840Z,15.00
2019-04-20T06:24:24.934Z,15.20
2019-04-20T06:29:20.619Z,15.80
2019-04-20T06:31:57.687Z,16.00
2019-04-20T06:37:06.731Z,16.60
2019-04-20T06:39:56.741Z,16.80
2019-04-20T06:44:34.078Z,17.40
2019-04-20T06:47:11.677Z,17.70
2019-04-20T06:49:38.032Z,18.00
2019-04-20T06:52:36.752Z,18.30
2019-04-20T06:55:14.321Z,18.50
2019-04-20T06:57:54.759Z,18.80
2019-04-20T07:00:18.167Z,19.10
2019-04-20T07:03:05.740Z,19.20
2019-04-20T07:08:02.014Z,19.60
2019-04-20T07:10:34.476Z,19.90
2019-04-20T07:12:56.790Z,20.00
2019-04-20T07:15:29.147Z,20.30
2019-04-20T07:18:08.195Z,20.60
2019-04-20T07:21:09.897Z,20.90
2019-04-20T07:23:26.515Z,21.10
2019-04-20T07:25:54.198Z,21.40
2019-04-20T07:28:32.550Z,21.60
2019-04-20T07:30:55.481Z,21.90
2019-04-20T07:33:32.354Z,22.00
2019-04-20T07:35:56.013Z,22.30
2019-04-20T07:38:36.215Z,22.50
2019-04-20T07:41:00.015Z,22.60
2019-04-20T07:43:30.102Z,22.80
2019-04-20T07:46:12.025Z,23.00
2019-04-20T07:48:36.850Z,23.20
2019-04-20T07:50:58.246Z,23.30
2019-04-20T07:53:33.283Z,23.40
2019-04-20T07:56:11.476Z,23.70
2019-04-20T07:58:31.688Z,23.90
2019-04-20T08:01:26.340Z,24.10
2019-04-20T08:03:58.746Z,24.40
2019-04-20T08:06:18.122Z,24.50
2019-04-20T08:08:58.660Z,24.70
2019-04-20T08:11:36.680Z,24.80
2019-04-20T08:14:08.900Z,24.90
2019-04-20T08:19:08.425Z,25.00
2019-04-20T08:24:07.207Z,25.20
2019-04-20T08:26:26.944Z,25.30
2019-04-20T08:29:00.191Z,25.10
2019-04-20T08:31:43.459Z,25.20
2019-04-20T08:34:31.468Z,25.40
2019-04-20T08:36:58.543Z,25.50
2019-04-20T08:39:57.448Z,25.60
2019-04-20T08:42:00.558Z,25.70
2019-04-20T08:51:01.742Z,25.70
2019-04-20T08:53:39.376Z,26.00
2019-04-20T08:55:55.308Z,26.10
2019-04-20T08:58:16.384Z,26.20
2019-04-20T09:00:53.637Z,26.30
2019-04-20T09:03:25.370Z,26.40
2019-04-20T09:06:02.767Z,26.40
2019-04-20T09:08:28.123Z,26.60
2019-04-20T09:11:10.025Z,26.70
2019-04-20T09:13:37.183Z,26.90
2019-04-20T09:15:59.938Z,26.80
2019-04-20T09:24:15.954Z,27.00
2019-04-20T09:26:42.631Z,27.10
2019-04-20T09:29:02.993Z,27.20
2019-04-20T09:31:46.047Z,27.40
2019-04-20T09:37:22.380Z,27.40
2019-04-20T09:40:16.341Z,27.50
2019-04-20T09:42:40.193Z,27.60
2019-04-20T09:45:21.301Z,27.70
2019-04-20T09:47:47.876Z,27.80
2019-04-20T09:50:31.924Z,27.90
2019-04-20T09:53:03.645Z,27.80
2019-04-20T09:55:29.522Z,27.90
2019-04-20T09:58:04.083Z,27.90
2019-04-20T10:00:37.396Z,27.80
2019-04-20T10:02:52.617Z,27.90
2019-04-20T10:05:23.294Z,27.80
2019-04-20T10:07:57.574Z,27.90
2019-04-20T10:10:32.333Z,28.20
2019-04-20T10:12:56.351Z,28.30
2019-04-20T10:15:28.002Z,28.40
2019-04-20T10:17:57.588Z,28.60
2019-04-20T10:20:30.951Z,28.60
2019-04-20T10:22:58.634Z,28.60
2019-04-20T10:25:28.719Z,28.60
2019-04-20T10:27:58.367Z,28.70
2019-04-20T10:30:28.534Z,28.80
2019-04-20T10:32:59.470Z,28.90
2019-04-20T10:35:29.759Z,29.00
2019-04-20T10:38:07.481Z,29.10
2019-04-20T10:40:50.709Z,29.10
2019-04-20T10:43:12.009Z,29.20
2019-04-20T10:45:41.719Z,29.30
2019-04-20T10:48:11.431Z,29.40
2019-04-20T10:50:41.005Z,29.40
2019-04-20T10:53:12.128Z,29.50
2019-04-20T10:55:41.635Z,29.40
2019-04-20T10:58:11.501Z,29.40
2019-04-20T11:00:44.050Z,29.60
2019-04-20T11:03:17.645Z,29.70
2019-04-20T11:06:08.941Z,29.70
2019-04-20T11:08:38.643Z,29.80
2019-04-20T11:11:14.919Z,29.70
2019-04-20T11:13:39.599Z,29.80
2019-04-20T11:16:10.611Z,29.70
2019-04-20T11:18:40.381Z,29.70
2019-04-20T11:21:11.283Z,29.60
2019-04-20T11:23:42.450Z,29.50
2019-04-20T11:26:16.176Z,29.50
2019-04-20T11:28:46.257Z,29.60
2019-04-20T11:31:16.570Z,29.60
2019-04-20T11:33:46.419Z,29.40
2019-04-20T11:36:17.147Z,29.50
2019-04-20T11:38:47.117Z,29.60
2019-04-20T11:41:24.916Z,29.50
2019-04-20T11:43:49.388Z,29.30
2019-04-20T11:46:20.588Z,29.40
2019-04-20T11:48:50.206Z,29.50
2019-04-20T11:51:21.399Z,29.50
2019-04-20T11:53:52.243Z,29.40
2019-04-20T11:56:26.694Z,29.40
2019-04-20T11:58:56.651Z,29.40
2019-04-20T12:01:59.042Z,29.40
2019-04-20T12:04:48.900Z,29.50
2019-04-20T12:07:11.070Z,29.50
2019-04-20T12:09:41.858Z,29.40
2019-04-20T12:12:24.390Z,29.20
2019-04-20T12:14:43.973Z,29.20
2019-04-20T12:17:13.658Z,29.10
2019-04-20T12:19:43.867Z,28.40
2019-04-20T12:22:14.035Z,28.40
2019-04-20T12:24:44.540Z,28.30
2019-04-20T12:27:16.375Z,28.40
2019-04-20T12:29:47.809Z,28.40
2019-04-20T12:32:17.895Z,28.40
2019-04-20T12:34:47.717Z,28.50
2019-04-20T12:37:18.674Z,28.50
2019-04-20T12:39:49.169Z,28.50
2019-04-20T12:42:19.033Z,28.30
2019-04-20T12:44:50.092Z,27.90
2019-04-20T12:47:21.616Z,27.50
2019-04-20T12:49:51.635Z,27.60
2019-04-20T12:52:22.687Z,27.70
2019-04-20T12:54:52.636Z,27.70
2019-04-20T12:57:22.690Z,27.60
2019-04-20T12:59:52.511Z,27.40
2019-04-20T13:02:23.416Z,27.30
2019-04-20T13:04:53.369Z,27.30
2019-04-20T13:07:24.675Z,27.10
2019-04-20T13:09:54.857Z,26.80
2019-04-20T13:15:46.567Z,26.60
2019-04-20T13:18:19.204Z,26.50
2019-04-20T13:20:53.578Z,26.20
2019-04-20T13:23:22.928Z,26.20
2019-04-20T13:25:52.959Z,26.10
2019-04-20T13:28:23.363Z,26.30
2019-04-20T13:30:53.640Z,26.30
2019-04-20T13:33:24.944Z,26.10
2019-04-20T13:35:54.659Z,26.00
2019-04-20T13:38:24.333Z,26.00
2019-04-20T13:40:55.726Z,26.00
2019-04-20T13:43:25.805Z,25.90
2019-04-20T13:45:55.406Z,25.80
2019-04-20T13:48:26.666Z,25.70
2019-04-20T13:50:56.415Z,25.80
2019-04-20T13:53:27.238Z,25.70
2019-04-20T13:55:58.213Z,25.70
2019-04-20T13:58:45.743Z,25.60
2019-04-20T14:04:26.589Z,25.30
2019-04-20T14:06:57.561Z,25.30
2019-04-20T14:09:29.583Z,25.30
2019-04-20T14:12:13.217Z,25.20
2019-04-20T14:14:33.063Z,25.00
2019-04-20T14:17:03.325Z,25.00
2019-04-20T14:19:34.821Z,24.90
2019-04-20T14:22:06.028Z,24.90
2019-04-20T14:24:37.141Z,24.90
2019-04-20T14:27:06.804Z,24.70
2019-04-20T14:29:37.017Z,24.50
2019-04-20T14:32:10.248Z,24.60
2019-04-20T14:34:47.050Z,24.50
2019-04-20T14:37:17.133Z,24.60
2019-04-20T14:39:48.069Z,24.50
2019-04-20T14:42:41.825Z,24.50
2019-04-20T14:45:04.741Z,24.40
2019-04-20T14:47:34.245Z,24.20
2019-04-20T14:50:05.297Z,24.30
2019-04-20T14:52:35.477Z,24.30
2019-04-20T14:55:05.871Z,24.20
2019-04-20T14:57:35.425Z,24.20
2019-04-20T15:00:12.109Z,24.10
2019-04-20T15:02:41.481Z,24.00
2019-04-20T15:05:10.943Z,23.90
2019-04-20T15:07:40.742Z,23.80
2019-04-20T15:10:10.968Z,23.70
2019-04-20T15:12:48.856Z,23.50
2019-04-20T15:15:12.616Z,23.60
2019-04-20T15:17:47.859Z,23.60
2019-04-20T15:20:27.646Z,23.60
2019-04-20T15:22:59.397Z,23.20
2019-04-20T15:25:29.709Z,23.20
2019-04-20T15:28:00.488Z,23.20
2019-04-20T15:30:34.132Z,23.00
2019-04-20T15:33:05.047Z,22.80
2019-04-20T15:35:34.797Z,22.70
2019-04-20T15:38:05.153Z,22.40
2019-04-20T15:41:02.981Z,22.40
2019-04-20T15:43:35.197Z,22.30
2019-04-20T15:46:51.466Z,22.00
2019-04-20T15:49:26.300Z,21.90
2019-04-20T15:51:55.799Z,21.70
2019-04-20T15:54:25.459Z,21.70
2019-04-20T15:57:01.237Z,21.70
2019-04-20T15:59:48.522Z,21.70
2019-04-20T16:02:33.523Z,21.70
2019-04-20T16:05:37.561Z,21.60
2019-04-20T16:08:21.829Z,21.50
2019-04-20T16:10:53.113Z,21.50
2019-04-20T16:13:31.346Z,21.30
2019-04-20T16:15:54.027Z,21.30
2019-04-20T16:18:23.485Z,21.20
2019-04-20T16:21:01.626Z,21.10
2019-04-20T16:23:24.942Z,20.90
2019-04-20T16:26:13.614Z,20.80
2019-04-20T16:28:43.754Z,20.70
2019-04-20T16:31:15.402Z,20.60
2019-04-20T16:33:48.490Z,20.50
2019-04-20T16:36:18.767Z,20.30
2019-04-20T16:38:48.147Z,20.20
2019-04-20T16:41:20.063Z,20.20
2019-04-20T16:43:50.294Z,20.00
2019-04-20T16:46:23.839Z,19.90
2019-04-20T16:48:55.074Z,19.90
2019-04-20T16:51:25.120Z,19.70
2019-04-20T16:53:56.037Z,19.60
2019-04-20T16:56:26.541Z,19.50
2019-04-20T16:59:03.512Z,19.40
2019-04-20T17:01:27.710Z,19.20
2019-04-20T17:04:06.582Z,19.20
2019-04-20T17:06:29.808Z,19.20
2019-04-20T17:08:59.373Z,19.10
2019-04-20T17:11:34.072Z,19.00
2019-04-20T17:14:03.695Z,18.90
2019-04-20T17:16:33.589Z,18.90
2019-04-20T17:19:03.837Z,18.80
2019-04-20T17:21:34.222Z,18.70
2019-04-20T17:24:04.783Z,18.70
2019-04-20T17:26:43.501Z,18.70
2019-04-20T17:29:23.945Z,18.60
2019-04-20T17:32:05.544Z,18.60
2019-04-20T17:34:46.806Z,18.60
2019-04-20T17:37:06.704Z,18.50
2019-04-20T17:39:54.189Z,18.50
2019-04-20T17:42:25.119Z,18.30
2019-04-20T17:44:49.236Z,18.30
2019-04-20T17:47:31.412Z,18.20
2019-04-20T17:50:08.353Z,18.20
2019-04-20T17:52:40.348Z,18.10
2019-04-20T17:54:53.645Z,18.10
2019-04-20T17:57:23.501Z,18.00
2019-04-20T18:00:03.091Z,17.90
2019-04-20T18:03:04.577Z,17.80
2019-04-20T18:05:49.958Z,17.70
2019-04-20T18:08:20.728Z,17.70
2019-04-20T18:10:47.256Z,17.50
2019-04-20T18:13:12.049Z,17.40
2019-04-20T18:15:52.815Z,17.40
2019-04-20T18:18:42.120Z,17.30
2019-04-20T18:21:14.995Z,17.30
2019-04-20T18:23:47.834Z,17.30
2019-04-20T18:26:38.382Z,17.20
2019-04-20T18:29:20.130Z,17.20
2019-04-20T18:31:35.627Z,17.10
2019-04-20T18:34:23.593Z,16.90
2019-04-20T18:36:51.472Z,16.90
2019-04-20T18:39:29.170Z,16.80
2019-04-20T18:41:57.159Z,16.80
2019-04-20T18:44:30.626Z,16.70
2019-04-20T18:47:18.196Z,16.70
2019-04-20T18:53:00.045Z,16.60
2019-04-20T18:55:41.158Z,16.50
2019-04-20T18:58:01.740Z,16.50
2019-04-20T19:00:36.411Z,16.40
2019-04-20T19:03:13.281Z,16.30
2019-04-20T19:05:35.658Z,16.40
2019-04-20T19:08:10.377Z,16.30
2019-04-20T19:10:40.007Z,16.20
2019-04-20T19:13:25.346Z,16.10
2019-04-20T19:16:12.033Z,16.10
2019-04-20T19:31:45.825Z,15.90
2019-04-20T19:34:26.005Z,15.80
2019-04-20T19:58:02.512Z,14.90
2019-04-20T20:00:54.228Z,14.90
2019-04-20T20:03:23.964Z,14.80
2019-04-20T20:05:54.766Z,14.80
2019-04-20T20:08:29.506Z,14.70
2019-04-20T20:11:02.773Z,14.60
2019-04-20T20:13:41.220Z,14.50
2019-04-20T20:16:10.478Z,14.40
2019-04-20T20:18:48.815Z,14.50
2019-04-20T20:21:20.031Z,14.50
2019-04-20T20:23:38.366Z,14.40
2019-04-20T20:26:16.469Z,14.40
2019-04-20T20:28:46.506Z,14.30
2019-04-20T20:31:21.929Z,14.30
2019-04-20T20:33:56.432Z,14.20
2019-04-20T20:36:19.417Z,14.10
2019-04-20T20:38:49.276Z,14.20
2019-04-20T20:41:24.990Z,14.10
2019-04-20T20:43:56.516Z,14.00
2019-04-20T20:46:27.440Z,14.00
2019-04-20T20:49:22.312Z,14.00
2019-04-20T20:51:44.283Z,13.90
2019-04-20T20:54:02.829Z,13.80
2019-04-20T20:56:29.035Z,13.80
2019-04-20T20:59:00.775Z,13.70
2019-04-20T21:01:29.189Z,13.70
2019-04-20T21:03:56.711Z,13.70
2019-04-20T21:06:26.675Z,13.60
2019-04-20T21:08:58.303Z,13.50
2019-04-20T21:11:31.422Z,13.50
2019-04-20T21:13:59.317Z,13.40
2019-04-20T21:16:31.910Z,13.40
2019-04-20T21:19:20.083Z,13.30
2019-04-20T21:21:41.294Z,13.20
2019-04-20T21:24:14.361Z,13.20
2019-04-20T21:26:44.098Z,13.20
2019-04-20T21:29:13.605Z,13.10
2019-04-20T21:31:53.751Z,13.10
2019-04-20T21:34:18.646Z,13.10
2019-04-20T21:36:45.334Z,13.10
2019-04-20T21:39:23.516Z,13.00
2019-04-20T21:41:51.302Z,13.00
2019-04-20T21:44:24.282Z,12.90
2019-04-20T21:46:53.979Z,12.90
2019-04-20T21:49:36.220Z,12.80
2019-04-20T21:51:58.580Z,12.80
2019-04-20T21:54:22.283Z,12.80
2019-04-20T21:56:59.844Z,12.80
2019-04-20T21:59:32.131Z,12.70
2019-04-20T22:02:07.791Z,12.70
2019-04-20T22:04:29.597Z,12.70
2019-04-20T22:07:00.369Z,12.60
2019-04-20T22:09:40.039Z,12.60
2019-04-20T22:12:05.637Z,12.60
2019-04-20T22:14:35.692Z,12.60
2019-04-20T22:17:05.516Z,12.60
2019-04-20T22:19:44.098Z,12.50
2019-04-20T22:22:18.466Z,12.50
2019-04-20T22:24:50.593Z,12.50
2019-04-20T22:27:15.869Z,12.40
2019-04-20T22:29:39.649Z,12.40
2019-04-20T22:32:13.079Z,12.30
2019-04-20T22:34:40.191Z,12.40
2019-04-20T22:37:15.260Z,12.30
2019-04-20T22:39:49.904Z,12.20
2019-04-20T22:42:18.214Z,12.20
2019-04-20T22:44:54.686Z,12.20
2019-04-20T22:47:23.256Z,12.10
2019-04-20T22:50:12.858Z,12.10
2019-04-20T22:52:42.190Z,12.10
2019-04-20T22:55:16.821Z,12.10
2019-04-20T22:57:41.931Z,12.10
2019-04-20T23:00:05.353Z,12.00
2019-04-20T23:02:33.350Z,12.00
2019-04-20T23:05:02.982Z,12.00
2019-04-20T23:07:34.657Z,12.00
2019-04-20T23:10:05.458Z,12.00
2019-04-20T23:12:40.027Z,12.00
2019-04-20T23:15:10.392Z,12.00
2019-04-20T23:17:45.327Z,11.90
2019-04-20T23:20:17.176Z,11.90
2019-04-20T23:22:46.139Z,11.80
2019-04-20T23:25:15.299Z,11.80
2019-04-20T23:27:45.780Z,11.80
2019-04-20T23:30:23.626Z,11.70
2019-04-20T23:32:49.663Z,11.70
2019-04-20T23:35:22.732Z,11.70
2019-04-20T23:37:50.846Z,11.60
2019-04-20T23:40:29.866Z,11.70
2019-04-20T23:43:08.895Z,11.60
2019-04-20T23:45:52.669Z,11.60
2019-04-20T23:48:34.864Z,11.60
2019-04-20T23:51:17.771Z,11.60
2019-04-20T23:53:48.093Z,11.60
2019-04-20T23:56:05.885Z,11.50
2019-04-20T23:58:42.867Z,11.50
